sensor_id;sensor_type;location;lat;lon;timestamp;P1;durP1;ratioP1;P2;durP2;ratioP2
83423;SDS011;73355;49.044;8.686;2024-01-27T00:02:01;4.43;;;2.43;;
83423;SDS011;73355;49.044;8.686;2024-01-27T00:06:54;7.63;;;3.38;;
83423;SDS011;73355;49.044;8.686;2024-01-27T00:09:19;5.47;;;3.33;;
83423;SDS011;73355;49.044;8.686;2024-01-27T00:11:44;9.40;;;3.50;;
83423;SDS011;73355;49.044;8.686;2024-01-27T00:14:09;6.50;;;3.33;;
83423;SDS011;73355;49.044;8.686;2024-01-27T00:16:35;6.07;;;3.10;;
83423;SDS011;73355;49.044;8.686;2024-01-27T00:19:00;7.00;;;3.10;;
83423;SDS011;73355;49.044;8.686;2024-01-27T00:21:25;6.37;;;3.10;;
83423;SDS011;73355;49.044;8.686;2024-01-27T00:23:50;6.10;;;3.80;;
83423;SDS011;73355;49.044;8.686;2024-01-27T00:26:16;5.63;;;3.00;;
83423;SDS011;73355;49.044;8.686;2024-01-27T00:28:41;7.30;;;2.70;;
83423;SDS011;73355;49.044;8.686;2024-01-27T00:31:06;5.57;;;2.67;;
83423;SDS011;73355;49.044;8.686;2024-01-27T00:33:32;6.10;;;3.20;;
83423;SDS011;73355;49.044;8.686;2024-01-27T00:35:57;7.03;;;2.90;;
83423;SDS011;73355;49.044;8.686;2024-01-27T00:38:22;10.03;;;3.10;;
83423;SDS011;73355;49.044;8.686;2024-01-27T00:40:48;8.63;;;2.77;;
83423;SDS011;73355;49.044;8.686;2024-01-27T00:43:13;6.05;;;2.70;;
83423;SDS011;73355;49.044;8.686;2024-01-27T00:45:38;5.33;;;2.77;;
83423;SDS011;73355;49.044;8.686;2024-01-27T00:48:04;8.27;;;2.93;;
83423;SDS011;73355;49.044;8.686;2024-01-27T00:50:29;7.72;;;2.80;;
83423;SDS011;73355;49.044;8.686;2024-01-27T00:52:55;5.07;;;2.63;;
83423;SDS011;73355;49.044;8.686;2024-01-27T00:55:20;5.23;;;2.50;;
83423;SDS011;73355;49.044;8.686;2024-01-27T00:57:45;7.90;;;2.83;;
83423;SDS011;73355;49.044;8.686;2024-01-27T01:00:11;7.37;;;3.07;;
83423;SDS011;73355;49.044;8.686;2024-01-27T01:02:37;8.57;;;3.05;;
83423;SDS011;73355;49.044;8.686;2024-01-27T01:05:03;7.00;;;2.90;;
83423;SDS011;73355;49.044;8.686;2024-01-27T01:07:32;5.43;;;2.78;;
83423;SDS011;73355;49.044;8.686;2024-01-27T01:09:57;6.10;;;2.95;;
83423;SDS011;73355;49.044;8.686;2024-01-27T01:12:23;6.50;;;3.47;;
83423;SDS011;73355;49.044;8.686;2024-01-27T01:14:50;8.63;;;3.20;;
83423;SDS011;73355;49.044;8.686;2024-01-27T01:17:15;5.93;;;3.27;;
83423;SDS011;73355;49.044;8.686;2024-01-27T01:19:41;5.97;;;3.10;;
83423;SDS011;73355;49.044;8.686;2024-01-27T01:22:06;7.72;;;3.20;;
83423;SDS011;73355;49.044;8.686;2024-01-27T01:24:32;6.47;;;2.95;;
83423;SDS011;73355;49.044;8.686;2024-01-27T01:26:58;6.43;;;2.90;;
83423;SDS011;73355;49.044;8.686;2024-01-27T01:29:24;5.13;;;2.72;;
83423;SDS011;73355;49.044;8.686;2024-01-27T01:31:49;6.67;;;2.60;;
83423;SDS011;73355;49.044;8.686;2024-01-27T01:34:14;4.47;;;2.23;;
83423;SDS011;73355;49.044;8.686;2024-01-27T01:36:40;5.55;;;2.55;;
83423;SDS011;73355;49.044;8.686;2024-01-27T01:39:06;5.05;;;2.40;;
83423;SDS011;73355;49.044;8.686;2024-01-27T01:41:32;3.90;;;2.20;;
83423;SDS011;73355;49.044;8.686;2024-01-27T01:43:57;5.25;;;2.58;;
83423;SDS011;73355;49.044;8.686;2024-01-27T01:46:22;3.97;;;1.93;;
83423;SDS011;73355;49.044;8.686;2024-01-27T01:48:51;4.97;;;2.28;;
83423;SDS011;73355;49.044;8.686;2024-01-27T01:51:16;3.67;;;2.20;;
83423;SDS011;73355;49.044;8.686;2024-01-27T01:53:42;4.07;;;1.90;;
83423;SDS011;73355;49.044;8.686;2024-01-27T01:56:08;3.53;;;1.88;;
83423;SDS011;73355;49.044;8.686;2024-01-27T01:58:33;5.13;;;2.00;;
83423;SDS011;73355;49.044;8.686;2024-01-27T02:00:59;3.60;;;1.83;;
83423;SDS011;73355;49.044;8.686;2024-01-27T02:03:25;5.75;;;2.50;;
83423;SDS011;73355;49.044;8.686;2024-01-27T02:05:51;4.13;;;2.13;;
83423;SDS011;73355;49.044;8.686;2024-01-27T02:08:16;3.67;;;1.97;;
83423;SDS011;73355;49.044;8.686;2024-01-27T02:10:42;5.07;;;2.08;;
83423;SDS011;73355;49.044;8.686;2024-01-27T02:15:45;3.88;;;1.80;;
83423;SDS011;73355;49.044;8.686;2024-01-27T02:18:11;5.00;;;2.00;;
83423;SDS011;73355;49.044;8.686;2024-01-27T02:20:36;3.88;;;1.92;;
83423;SDS011;73355;49.044;8.686;2024-01-27T02:23:02;4.05;;;1.90;;
83423;SDS011;73355;49.044;8.686;2024-01-27T02:25:29;3.50;;;2.20;;
83423;SDS011;73355;49.044;8.686;2024-01-27T02:27:55;3.90;;;1.90;;
83423;SDS011;73355;49.044;8.686;2024-01-27T02:30:20;2.87;;;1.70;;
83423;SDS011;73355;49.044;8.686;2024-01-27T02:32:46;5.75;;;2.10;;
83423;SDS011;73355;49.044;8.686;2024-01-27T02:35:11;5.40;;;1.97;;
83423;SDS011;73355;49.044;8.686;2024-01-27T02:37:37;3.70;;;1.80;;
83423;SDS011;73355;49.044;8.686;2024-01-27T02:40:03;3.70;;;1.93;;
83423;SDS011;73355;49.044;8.686;2024-01-27T02:42:28;5.22;;;1.98;;
83423;SDS011;73355;49.044;8.686;2024-01-27T02:44:54;4.30;;;2.23;;
83423;SDS011;73355;49.044;8.686;2024-01-27T02:47:19;5.50;;;1.90;;
83423;SDS011;73355;49.044;8.686;2024-01-27T02:49:44;2.87;;;1.60;;
83423;SDS011;73355;49.044;8.686;2024-01-27T02:52:09;5.53;;;1.70;;
83423;SDS011;73355;49.044;8.686;2024-01-27T02:54:35;3.03;;;1.90;;
83423;SDS011;73355;49.044;8.686;2024-01-27T02:57:00;3.43;;;1.97;;
83423;SDS011;73355;49.044;8.686;2024-01-27T02:59:25;6.28;;;2.58;;
83423;SDS011;73355;49.044;8.686;2024-01-27T03:01:51;5.00;;;2.03;;
83423;SDS011;73355;49.044;8.686;2024-01-27T03:04:16;5.17;;;2.17;;
83423;SDS011;73355;49.044;8.686;2024-01-27T03:06:41;6.23;;;2.23;;
83423;SDS011;73355;49.044;8.686;2024-01-27T03:09:06;3.37;;;1.70;;
83423;SDS011;73355;49.044;8.686;2024-01-27T03:11:32;2.90;;;1.60;;
83423;SDS011;73355;49.044;8.686;2024-01-27T03:13:57;3.87;;;2.03;;
83423;SDS011;73355;49.044;8.686;2024-01-27T03:16:22;3.80;;;1.97;;
83423;SDS011;73355;49.044;8.686;2024-01-27T03:18:48;6.00;;;2.30;;
83423;SDS011;73355;49.044;8.686;2024-01-27T03:21:13;7.00;;;2.27;;
83423;SDS011;73355;49.044;8.686;2024-01-27T03:23:39;5.93;;;1.83;;
83423;SDS011;73355;49.044;8.686;2024-01-27T03:26:04;5.23;;;1.93;;
83423;SDS011;73355;49.044;8.686;2024-01-27T03:28:29;7.93;;;2.17;;
83423;SDS011;73355;49.044;8.686;2024-01-27T03:30:55;5.63;;;2.10;;
83423;SDS011;73355;49.044;8.686;2024-01-27T03:33:20;6.10;;;1.95;;
83423;SDS011;73355;49.044;8.686;2024-01-27T03:35:47;5.70;;;2.17;;
83423;SDS011;73355;49.044;8.686;2024-01-27T03:38:13;5.70;;;2.17;;
83423;SDS011;73355;49.044;8.686;2024-01-27T03:40:38;5.50;;;2.00;;
83423;SDS011;73355;49.044;8.686;2024-01-27T03:43:03;4.53;;;2.23;;
83423;SDS011;73355;49.044;8.686;2024-01-27T03:45:28;6.17;;;2.17;;
83423;SDS011;73355;49.044;8.686;2024-01-27T03:47:54;4.63;;;1.77;;
83423;SDS011;73355;49.044;8.686;2024-01-27T03:50:19;4.17;;;1.80;;
83423;SDS011;73355;49.044;8.686;2024-01-27T03:52:44;3.70;;;1.80;;
83423;SDS011;73355;49.044;8.686;2024-01-27T03:55:10;3.28;;;1.90;;
83423;SDS011;73355;49.044;8.686;2024-01-27T03:57:35;5.65;;;1.90;;
83423;SDS011;73355;49.044;8.686;2024-01-27T04:00:00;3.00;;;1.70;;
83423;SDS011;73355;49.044;8.686;2024-01-27T04:02:26;4.63;;;1.90;;
83423;SDS011;73355;49.044;8.686;2024-01-27T04:04:51;4.47;;;1.77;;
83423;SDS011;73355;49.044;8.686;2024-01-27T04:07:16;3.37;;;2.00;;
83423;SDS011;73355;49.044;8.686;2024-01-27T04:09:41;7.63;;;2.20;;
83423;SDS011;73355;49.044;8.686;2024-01-27T04:12:07;5.10;;;2.37;;
83423;SDS011;73355;49.044;8.686;2024-01-27T04:14:32;4.60;;;2.10;;
83423;SDS011;73355;49.044;8.686;2024-01-27T04:16:58;3.40;;;1.70;;
83423;SDS011;73355;49.044;8.686;2024-01-27T04:19:23;5.13;;;2.20;;
83423;SDS011;73355;49.044;8.686;2024-01-27T04:21:48;4.43;;;2.10;;
83423;SDS011;73355;49.044;8.686;2024-01-27T04:24:14;5.80;;;2.03;;
83423;SDS011;73355;49.044;8.686;2024-01-27T04:26:39;4.78;;;2.10;;
83423;SDS011;73355;49.044;8.686;2024-01-27T04:29:04;3.30;;;1.90;;
83423;SDS011;73355;49.044;8.686;2024-01-27T04:31:30;4.00;;;1.97;;
83423;SDS011;73355;49.044;8.686;2024-01-27T04:33:56;3.33;;;1.70;;
83423;SDS011;73355;49.044;8.686;2024-01-27T04:36:25;5.00;;;2.03;;
83423;SDS011;73355;49.044;8.686;2024-01-27T04:38:52;4.18;;;1.90;;
83423;SDS011;73355;49.044;8.686;2024-01-27T04:41:17;5.33;;;1.90;;
83423;SDS011;73355;49.044;8.686;2024-01-27T04:43:43;3.75;;;1.52;;
83423;SDS011;73355;49.044;8.686;2024-01-27T04:46:08;4.33;;;1.87;;
83423;SDS011;73355;49.044;8.686;2024-01-27T04:48:34;3.63;;;1.88;;
83423;SDS011;73355;49.044;8.686;2024-01-27T04:50:59;4.33;;;1.83;;
83423;SDS011;73355;49.044;8.686;2024-01-27T04:53:24;5.23;;;2.10;;
83423;SDS011;73355;49.044;8.686;2024-01-27T04:55:50;4.80;;;1.93;;
83423;SDS011;73355;49.044;8.686;2024-01-27T04:58:15;5.63;;;1.80;;
83423;SDS011;73355;49.044;8.686;2024-01-27T05:00:40;4.03;;;1.70;;
83423;SDS011;73355;49.044;8.686;2024-01-27T05:03:05;4.30;;;2.00;;
83423;SDS011;73355;49.044;8.686;2024-01-27T05:05:33;3.08;;;1.83;;
83423;SDS011;73355;49.044;8.686;2024-01-27T05:07:58;4.83;;;1.90;;
83423;SDS011;73355;49.044;8.686;2024-01-27T05:10:24;5.33;;;1.90;;
83423;SDS011;73355;49.044;8.686;2024-01-27T05:12:50;3.78;;;1.70;;
83423;SDS011;73355;49.044;8.686;2024-01-27T05:15:15;6.50;;;1.77;;
83423;SDS011;73355;49.044;8.686;2024-01-27T05:17:41;6.27;;;2.03;;
83423;SDS011;73355;49.044;8.686;2024-01-27T05:20:06;5.83;;;1.93;;
83423;SDS011;73355;49.044;8.686;2024-01-27T05:22:32;4.63;;;2.10;;
83423;SDS011;73355;49.044;8.686;2024-01-27T05:24:57;7.50;;;2.40;;
83423;SDS011;73355;49.044;8.686;2024-01-27T05:27:22;4.17;;;2.17;;
83423;SDS011;73355;49.044;8.686;2024-01-27T05:29:48;3.28;;;1.67;;
83423;SDS011;73355;49.044;8.686;2024-01-27T05:32:13;6.60;;;2.33;;
83423;SDS011;73355;49.044;8.686;2024-01-27T05:34:38;3.63;;;2.03;;
83423;SDS011;73355;49.044;8.686;2024-01-27T05:37:04;4.63;;;2.07;;
83423;SDS011;73355;49.044;8.686;2024-01-27T05:39:29;6.50;;;2.13;;
83423;SDS011;73355;49.044;8.686;2024-01-27T05:41:54;4.27;;;2.40;;
83423;SDS011;73355;49.044;8.686;2024-01-27T05:44:20;5.40;;;1.85;;
83423;SDS011;73355;49.044;8.686;2024-01-27T05:46:45;3.37;;;1.80;;
83423;SDS011;73355;49.044;8.686;2024-01-27T05:49:11;3.07;;;1.87;;
83423;SDS011;73355;49.044;8.686;2024-01-27T05:51:36;4.33;;;1.90;;
83423;SDS011;73355;49.044;8.686;2024-01-27T05:54:01;5.23;;;1.90;;
83423;SDS011;73355;49.044;8.686;2024-01-27T05:56:27;3.88;;;1.92;;
83423;SDS011;73355;49.044;8.686;2024-01-27T05:58:52;4.00;;;1.60;;
83423;SDS011;73355;49.044;8.686;2024-01-27T06:01:18;5.40;;;1.87;;
83423;SDS011;73355;49.044;8.686;2024-01-27T06:03:44;3.47;;;1.48;;
83423;SDS011;73355;49.044;8.686;2024-01-27T06:06:09;3.97;;;1.52;;
83423;SDS011;73355;49.044;8.686;2024-01-27T06:08:35;4.95;;;1.75;;
83423;SDS011;73355;49.044;8.686;2024-01-27T06:11:00;3.15;;;1.58;;
83423;SDS011;73355;49.044;8.686;2024-01-27T06:13:26;3.83;;;1.80;;
83423;SDS011;73355;49.044;8.686;2024-01-27T06:15:51;3.10;;;1.45;;
83423;SDS011;73355;49.044;8.686;2024-01-27T06:18:17;5.32;;;1.85;;
83423;SDS011;73355;49.044;8.686;2024-01-27T06:20:42;6.43;;;1.60;;
83423;SDS011;73355;49.044;8.686;2024-01-27T06:23:07;2.95;;;1.55;;
83423;SDS011;73355;49.044;8.686;2024-01-27T06:25:33;3.22;;;1.42;;
83423;SDS011;73355;49.044;8.686;2024-01-27T06:27:59;4.85;;;1.83;;
83423;SDS011;73355;49.044;8.686;2024-01-27T06:30:24;3.23;;;1.50;;
83423;SDS011;73355;49.044;8.686;2024-01-27T06:32:50;4.05;;;1.77;;
83423;SDS011;73355;49.044;8.686;2024-01-27T06:35:15;6.40;;;1.73;;
83423;SDS011;73355;49.044;8.686;2024-01-27T06:37:40;4.28;;;1.65;;
83423;SDS011;73355;49.044;8.686;2024-01-27T06:40:06;3.83;;;1.70;;
83423;SDS011;73355;49.044;8.686;2024-01-27T06:42:32;4.38;;;1.52;;
83423;SDS011;73355;49.044;8.686;2024-01-27T06:44:57;7.33;;;1.77;;
83423;SDS011;73355;49.044;8.686;2024-01-27T06:47:23;4.10;;;1.77;;
83423;SDS011;73355;49.044;8.686;2024-01-27T06:49:48;3.83;;;1.50;;
83423;SDS011;73355;49.044;8.686;2024-01-27T06:52:13;4.67;;;1.57;;
83423;SDS011;73355;49.044;8.686;2024-01-27T06:54:38;5.03;;;1.87;;
83423;SDS011;73355;49.044;8.686;2024-01-27T06:57:17;4.30;;;1.35;;
83423;SDS011;73355;49.044;8.686;2024-01-27T06:59:42;2.90;;;1.50;;
83423;SDS011;73355;49.044;8.686;2024-01-27T07:02:08;3.80;;;1.53;;
83423;SDS011;73355;49.044;8.686;2024-01-27T07:04:38;5.80;;;1.85;;
83423;SDS011;73355;49.044;8.686;2024-01-27T07:07:04;4.40;;;1.87;;
83423;SDS011;73355;49.044;8.686;2024-01-27T07:09:29;5.60;;;1.97;;
83423;SDS011;73355;49.044;8.686;2024-01-27T07:11:54;4.80;;;2.07;;
83423;SDS011;73355;49.044;8.686;2024-01-27T07:14:20;5.97;;;1.85;;
83423;SDS011;73355;49.044;8.686;2024-01-27T07:16:45;4.33;;;1.90;;
83423;SDS011;73355;49.044;8.686;2024-01-27T07:19:10;8.33;;;2.63;;
83423;SDS011;73355;49.044;8.686;2024-01-27T07:21:36;3.85;;;2.03;;
83423;SDS011;73355;49.044;8.686;2024-01-27T07:24:01;7.13;;;2.00;;
83423;SDS011;73355;49.044;8.686;2024-01-27T07:26:28;6.43;;;1.60;;
83423;SDS011;73355;49.044;8.686;2024-01-27T07:28:53;5.85;;;2.50;;
83423;SDS011;73355;49.044;8.686;2024-01-27T07:31:18;6.03;;;2.60;;
83423;SDS011;73355;49.044;8.686;2024-01-27T07:33:45;4.53;;;2.55;;
83423;SDS011;73355;49.044;8.686;2024-01-27T07:36:10;7.43;;;2.70;;
83423;SDS011;73355;49.044;8.686;2024-01-27T07:38:36;5.60;;;2.40;;
83423;SDS011;73355;49.044;8.686;2024-01-27T07:41:02;4.93;;;2.53;;
83423;SDS011;73355;49.044;8.686;2024-01-27T07:43:27;7.13;;;2.38;;
83423;SDS011;73355;49.044;8.686;2024-01-27T07:45:52;4.73;;;2.57;;
83423;SDS011;73355;49.044;8.686;2024-01-27T07:48:18;7.43;;;2.90;;
83423;SDS011;73355;49.044;8.686;2024-01-27T07:50:44;5.57;;;2.85;;
83423;SDS011;73355;49.044;8.686;2024-01-27T07:53:13;5.78;;;2.38;;
83423;SDS011;73355;49.044;8.686;2024-01-27T07:55:38;6.40;;;2.63;;
83423;SDS011;73355;49.044;8.686;2024-01-27T07:58:04;5.57;;;2.53;;
83423;SDS011;73355;49.044;8.686;2024-01-27T08:00:29;4.75;;;3.00;;
83423;SDS011;73355;49.044;8.686;2024-01-27T08:02:56;7.03;;;3.15;;
83423;SDS011;73355;49.044;8.686;2024-01-27T08:05:21;5.40;;;3.03;;
83423;SDS011;73355;49.044;8.686;2024-01-27T08:07:46;7.37;;;3.10;;
83423;SDS011;73355;49.044;8.686;2024-01-27T08:10:12;7.43;;;3.43;;
83423;SDS011;73355;49.044;8.686;2024-01-27T08:12:37;9.63;;;3.55;;
83423;SDS011;73355;49.044;8.686;2024-01-27T08:15:03;9.65;;;3.03;;
83423;SDS011;73355;49.044;8.686;2024-01-27T08:17:29;6.72;;;2.92;;
83423;SDS011;73355;49.044;8.686;2024-01-27T08:19:54;7.00;;;3.10;;
83423;SDS011;73355;49.044;8.686;2024-01-27T08:22:19;8.30;;;3.60;;
83423;SDS011;73355;49.044;8.686;2024-01-27T08:24:45;9.38;;;3.20;;
83423;SDS011;73355;49.044;8.686;2024-01-27T08:27:10;8.45;;;3.38;;
83423;SDS011;73355;49.044;8.686;2024-01-27T08:29:35;8.30;;;3.50;;
83423;SDS011;73355;49.044;8.686;2024-01-27T08:32:01;7.57;;;3.13;;
83423;SDS011;73355;49.044;8.686;2024-01-27T08:34:26;8.77;;;3.08;;
83423;SDS011;73355;49.044;8.686;2024-01-27T08:36:51;6.87;;;2.50;;
83423;SDS011;73355;49.044;8.686;2024-01-27T08:39:17;4.20;;;1.90;;
83423;SDS011;73355;49.044;8.686;2024-01-27T08:41:42;7.10;;;2.20;;
83423;SDS011;73355;49.044;8.686;2024-01-27T08:44:08;6.47;;;2.63;;
83423;SDS011;73355;49.044;8.686;2024-01-27T08:46:34;6.50;;;2.93;;
83423;SDS011;73355;49.044;8.686;2024-01-27T08:48:59;9.93;;;2.97;;
83423;SDS011;73355;49.044;8.686;2024-01-27T08:51:24;5.03;;;2.70;;
83423;SDS011;73355;49.044;8.686;2024-01-27T08:53:49;5.10;;;1.90;;
83423;SDS011;73355;49.044;8.686;2024-01-27T08:56:15;5.93;;;2.13;;
83423;SDS011;73355;49.044;8.686;2024-01-27T08:58:43;5.03;;;2.22;;
83423;SDS011;73355;49.044;8.686;2024-01-27T09:01:09;6.40;;;2.65;;
83423;SDS011;73355;49.044;8.686;2024-01-27T09:06:00;4.57;;;1.60;;
83423;SDS011;73355;49.044;8.686;2024-01-27T09:08:25;7.37;;;2.57;;
83423;SDS011;73355;49.044;8.686;2024-01-27T09:10:51;8.10;;;2.10;;
83423;SDS011;73355;49.044;8.686;2024-01-27T09:13:16;5.40;;;2.07;;
83423;SDS011;73355;49.044;8.686;2024-01-27T09:15:42;4.88;;;2.28;;
83423;SDS011;73355;49.044;8.686;2024-01-27T09:18:07;5.45;;;2.45;;
83423;SDS011;73355;49.044;8.686;2024-01-27T09:20:32;4.23;;;2.33;;
83423;SDS011;73355;49.044;8.686;2024-01-27T09:22:58;5.63;;;2.00;;
83423;SDS011;73355;49.044;8.686;2024-01-27T09:25:23;5.37;;;2.27;;
83423;SDS011;73355;49.044;8.686;2024-01-27T09:27:49;5.78;;;2.40;;
83423;SDS011;73355;49.044;8.686;2024-01-27T09:30:15;4.90;;;2.60;;
83423;SDS011;73355;49.044;8.686;2024-01-27T09:32:40;4.93;;;2.10;;
83423;SDS011;73355;49.044;8.686;2024-01-27T09:35:05;5.90;;;2.30;;
83423;SDS011;73355;49.044;8.686;2024-01-27T09:37:31;6.47;;;2.30;;
83423;SDS011;73355;49.044;8.686;2024-01-27T09:39:58;6.03;;;2.50;;
83423;SDS011;73355;49.044;8.686;2024-01-27T09:42:25;6.32;;;2.28;;
83423;SDS011;73355;49.044;8.686;2024-01-27T09:44:51;7.30;;;1.95;;
83423;SDS011;73355;49.044;8.686;2024-01-27T09:47:23;5.60;;;2.10;;
83423;SDS011;73355;49.044;8.686;2024-01-27T09:49:48;6.75;;;2.15;;
83423;SDS011;73355;49.044;8.686;2024-01-27T09:52:14;9.45;;;2.60;;
83423;SDS011;73355;49.044;8.686;2024-01-27T09:54:40;5.63;;;2.03;;
83423;SDS011;73355;49.044;8.686;2024-01-27T09:57:05;4.07;;;1.90;;
83423;SDS011;73355;49.044;8.686;2024-01-27T09:59:33;5.80;;;2.03;;
83423;SDS011;73355;49.044;8.686;2024-01-27T10:02:02;7.18;;;2.08;;
83423;SDS011;73355;49.044;8.686;2024-01-27T10:04:30;4.80;;;2.10;;
83423;SDS011;73355;49.044;8.686;2024-01-27T10:06:57;4.20;;;2.00;;
83423;SDS011;73355;49.044;8.686;2024-01-27T10:09:23;5.60;;;1.90;;
83423;SDS011;73355;49.044;8.686;2024-01-27T10:11:48;5.10;;;1.70;;
83423;SDS011;73355;49.044;8.686;2024-01-27T10:14:15;5.35;;;1.77;;
83423;SDS011;73355;49.044;8.686;2024-01-27T10:16:44;4.45;;;1.65;;
83423;SDS011;73355;49.044;8.686;2024-01-27T10:19:14;4.72;;;1.90;;
83423;SDS011;73355;49.044;8.686;2024-01-27T10:21:47;6.20;;;1.95;;
83423;SDS011;73355;49.044;8.686;2024-01-27T10:24:13;6.25;;;1.75;;
83423;SDS011;73355;49.044;8.686;2024-01-27T10:26:39;6.70;;;1.83;;
83423;SDS011;73355;49.044;8.686;2024-01-27T10:29:04;3.63;;;1.55;;
83423;SDS011;73355;49.044;8.686;2024-01-27T10:31:31;8.05;;;2.30;;
83423;SDS011;73355;49.044;8.686;2024-01-27T10:33:59;4.80;;;1.88;;
83423;SDS011;73355;49.044;8.686;2024-01-27T10:36:26;4.25;;;1.95;;
83423;SDS011;73355;49.044;8.686;2024-01-27T10:39:13;3.80;;;1.73;;
83423;SDS011;73355;49.044;8.686;2024-01-27T10:41:43;6.32;;;2.22;;
83423;SDS011;73355;49.044;8.686;2024-01-27T10:44:11;5.80;;;2.10;;
83423;SDS011;73355;49.044;8.686;2024-01-27T10:46:39;3.92;;;1.95;;
83423;SDS011;73355;49.044;8.686;2024-01-27T10:49:08;4.85;;;1.48;;
83423;SDS011;73355;49.044;8.686;2024-01-27T10:51:37;4.95;;;1.80;;
83423;SDS011;73355;49.044;8.686;2024-01-27T10:54:26;10.73;;;2.03;;
83423;SDS011;73355;49.044;8.686;2024-01-27T10:56:53;4.45;;;1.63;;
83423;SDS011;73355;49.044;8.686;2024-01-27T10:59:21;4.53;;;1.50;;
83423;SDS011;73355;49.044;8.686;2024-01-27T11:01:48;3.95;;;1.42;;
83423;SDS011;73355;49.044;8.686;2024-01-27T11:04:17;3.80;;;1.35;;
83423;SDS011;73355;49.044;8.686;2024-01-27T11:06:44;4.60;;;1.35;;
83423;SDS011;73355;49.044;8.686;2024-01-27T11:09:10;5.35;;;1.55;;
83423;SDS011;73355;49.044;8.686;2024-01-27T11:11:37;6.40;;;1.60;;
83423;SDS011;73355;49.044;8.686;2024-01-27T11:14:05;8.90;;;1.80;;
83423;SDS011;73355;49.044;8.686;2024-01-27T11:16:31;3.55;;;1.50;;
83423;SDS011;73355;49.044;8.686;2024-01-27T11:18:56;4.50;;;1.33;;
83423;SDS011;73355;49.044;8.686;2024-01-27T11:21:21;3.17;;;1.27;;
83423;SDS011;73355;49.044;8.686;2024-01-27T11:23:47;4.10;;;1.48;;
83423;SDS011;73355;49.044;8.686;2024-01-27T11:26:17;3.92;;;1.38;;
83423;SDS011;73355;49.044;8.686;2024-01-27T11:28:47;4.45;;;1.13;;
83423;SDS011;73355;49.044;8.686;2024-01-27T11:31:16;3.53;;;0.95;;
83423;SDS011;73355;49.044;8.686;2024-01-27T11:33:44;4.55;;;1.13;;
83423;SDS011;73355;49.044;8.686;2024-01-27T11:36:19;3.30;;;1.13;;
83423;SDS011;73355;49.044;8.686;2024-01-27T11:38:47;5.60;;;1.30;;
83423;SDS011;73355;49.044;8.686;2024-01-27T11:41:22;3.92;;;1.05;;
83423;SDS011;73355;49.044;8.686;2024-01-27T11:43:52;4.32;;;1.05;;
83423;SDS011;73355;49.044;8.686;2024-01-27T11:46:22;4.45;;;1.40;;
83423;SDS011;73355;49.044;8.686;2024-01-27T11:48:47;5.65;;;1.40;;
83423;SDS011;73355;49.044;8.686;2024-01-27T11:51:13;3.47;;;1.10;;
83423;SDS011;73355;49.044;8.686;2024-01-27T11:53:39;6.25;;;1.35;;
83423;SDS011;73355;49.044;8.686;2024-01-27T11:56:05;3.95;;;1.30;;
83423;SDS011;73355;49.044;8.686;2024-01-27T11:58:31;7.15;;;1.73;;
83423;SDS011;73355;49.044;8.686;2024-01-27T12:00:57;4.28;;;1.23;;
83423;SDS011;73355;49.044;8.686;2024-01-27T12:03:26;3.95;;;1.20;;
83423;SDS011;73355;49.044;8.686;2024-01-27T12:05:52;5.90;;;1.40;;
83423;SDS011;73355;49.044;8.686;2024-01-27T12:08:21;5.45;;;1.30;;
83423;SDS011;73355;49.044;8.686;2024-01-27T12:10:46;4.13;;;1.10;;
83423;SDS011;73355;49.044;8.686;2024-01-27T12:13:12;4.33;;;1.27;;
83423;SDS011;73355;49.044;8.686;2024-01-27T12:15:37;5.60;;;1.48;;
83423;SDS011;73355;49.044;8.686;2024-01-27T12:18:05;6.73;;;1.37;;
83423;SDS011;73355;49.044;8.686;2024-01-27T12:20:31;3.10;;;1.05;;
83423;SDS011;73355;49.044;8.686;2024-01-27T12:23:03;3.88;;;1.27;;
83423;SDS011;73355;49.044;8.686;2024-01-27T12:25:29;5.85;;;1.35;;
83423;SDS011;73355;49.044;8.686;2024-01-27T12:27:54;4.03;;;1.73;;
83423;SDS011;73355;49.044;8.686;2024-01-27T12:30:20;2.90;;;1.17;;
83423;SDS011;73355;49.044;8.686;2024-01-27T12:32:46;4.40;;;1.50;;
83423;SDS011;73355;49.044;8.686;2024-01-27T12:35:13;3.85;;;1.25;;
83423;SDS011;73355;49.044;8.686;2024-01-27T12:37:43;4.85;;;1.50;;
83423;SDS011;73355;49.044;8.686;2024-01-27T12:40:18;2.97;;;1.20;;
83423;SDS011;73355;49.044;8.686;2024-01-27T12:42:43;4.47;;;1.25;;
83423;SDS011;73355;49.044;8.686;2024-01-27T12:45:09;5.47;;;1.80;;
83423;SDS011;73355;49.044;8.686;2024-01-27T12:47:36;5.97;;;1.77;;
83423;SDS011;73355;49.044;8.686;2024-01-27T12:50:04;4.05;;;1.20;;
83423;SDS011;73355;49.044;8.686;2024-01-27T12:52:30;4.75;;;1.58;;
83423;SDS011;73355;49.044;8.686;2024-01-27T12:54:55;3.20;;;1.50;;
83423;SDS011;73355;49.044;8.686;2024-01-27T12:57:20;5.20;;;1.13;;
83423;SDS011;73355;49.044;8.686;2024-01-27T12:59:45;7.20;;;1.53;;
83423;SDS011;73355;49.044;8.686;2024-01-27T13:02:11;5.83;;;1.60;;
83423;SDS011;73355;49.044;8.686;2024-01-27T13:04:42;4.03;;;1.23;;
83423;SDS011;73355;49.044;8.686;2024-01-27T13:07:08;3.83;;;1.38;;
83423;SDS011;73355;49.044;8.686;2024-01-27T13:09:35;3.38;;;1.30;;
83423;SDS011;73355;49.044;8.686;2024-01-27T13:12:01;3.50;;;1.35;;
83423;SDS011;73355;49.044;8.686;2024-01-27T13:14:27;6.63;;;1.20;;
83423;SDS011;73355;49.044;8.686;2024-01-27T13:16:52;6.37;;;1.37;;
83423;SDS011;73355;49.044;8.686;2024-01-27T13:19:23;5.10;;;1.23;;
83423;SDS011;73355;49.044;8.686;2024-01-27T13:21:48;3.67;;;1.27;;
83423;SDS011;73355;49.044;8.686;2024-01-27T13:24:14;3.97;;;1.63;;
83423;SDS011;73355;49.044;8.686;2024-01-27T13:26:39;6.77;;;2.27;;
83423;SDS011;73355;49.044;8.686;2024-01-27T13:29:04;4.93;;;1.30;;
83423;SDS011;73355;49.044;8.686;2024-01-27T13:31:30;2.45;;;1.23;;
83423;SDS011;73355;49.044;8.686;2024-01-27T13:34:00;3.60;;;1.45;;
83423;SDS011;73355;49.044;8.686;2024-01-27T13:36:30;5.72;;;1.50;;
83423;SDS011;73355;49.044;8.686;2024-01-27T13:38:55;4.65;;;1.58;;
83423;SDS011;73355;49.044;8.686;2024-01-27T13:41:21;2.38;;;1.10;;
83423;SDS011;73355;49.044;8.686;2024-01-27T13:43:46;3.80;;;1.37;;
83423;SDS011;73355;49.044;8.686;2024-01-27T13:46:12;6.70;;;1.60;;
83423;SDS011;73355;49.044;8.686;2024-01-27T13:48:38;4.35;;;1.70;;
83423;SDS011;73355;49.044;8.686;2024-01-27T13:51:04;7.45;;;2.08;;
83423;SDS011;73355;49.044;8.686;2024-01-27T13:53:29;4.35;;;1.35;;
83423;SDS011;73355;49.044;8.686;2024-01-27T13:55:54;5.00;;;1.50;;
83423;SDS011;73355;49.044;8.686;2024-01-27T13:58:20;4.93;;;1.38;;
83423;SDS011;73355;49.044;8.686;2024-01-27T14:00:46;2.65;;;1.38;;
83423;SDS011;73355;49.044;8.686;2024-01-27T14:03:18;3.92;;;1.60;;
83423;SDS011;73355;49.044;8.686;2024-01-27T14:05:43;4.18;;;1.20;;
83423;SDS011;73355;49.044;8.686;2024-01-27T14:08:11;5.00;;;1.20;;
83423;SDS011;73355;49.044;8.686;2024-01-27T14:10:36;2.40;;;1.40;;
83423;SDS011;73355;49.044;8.686;2024-01-27T14:13:02;4.90;;;1.70;;
83423;SDS011;73355;49.044;8.686;2024-01-27T14:15:43;4.93;;;1.60;;
83423;SDS011;73355;49.044;8.686;2024-01-27T14:18:08;6.03;;;1.80;;
83423;SDS011;73355;49.044;8.686;2024-01-27T14:23:02;4.05;;;1.48;;
83423;SDS011;73355;49.044;8.686;2024-01-27T14:25:29;5.00;;;1.63;;
83423;SDS011;73355;49.044;8.686;2024-01-27T14:27:54;9.90;;;1.98;;
83423;SDS011;73355;49.044;8.686;2024-01-27T14:30:32;3.70;;;1.48;;
83423;SDS011;73355;49.044;8.686;2024-01-27T14:32:58;6.00;;;1.80;;
83423;SDS011;73355;49.044;8.686;2024-01-27T14:35:23;4.77;;;1.57;;
83423;SDS011;73355;49.044;8.686;2024-01-27T14:40:15;2.70;;;1.00;;
83423;SDS011;73355;49.044;8.686;2024-01-27T14:42:43;1.83;;;0.90;;
83423;SDS011;73355;49.044;8.686;2024-01-27T14:45:10;4.38;;;1.08;;
83423;SDS011;73355;49.044;8.686;2024-01-27T14:47:35;2.63;;;1.10;;
83423;SDS011;73355;49.044;8.686;2024-01-27T14:50:01;3.80;;;0.90;;
83423;SDS011;73355;49.044;8.686;2024-01-27T14:52:26;1.67;;;0.90;;
83423;SDS011;73355;49.044;8.686;2024-01-27T14:54:53;3.80;;;1.20;;